Beaver Creek Airport


Codes: CYXQ/YXQ
Name: Beaver Creek Airport
City: Beaver Creek
Country: Canada
Elevation: 2131 ft.
Wikipedia:

Photos at Beaver Creek Airport


   Photos courtesy of SpottingLog. You can add your own sightings and photos by signing up for a free trial today.



No photos found.

Weather at Beaver Creek Airport


Time (UTC)DescriptionTempratureWindCloud coverageVisibilityPressureHumidity
15-Apr-2024 18:00Overcast Clouds-9°C4 mph, E91%10000m1029hPa80%
15-Apr-2024 21:00Broken Clouds-4°C4 mph, SE55%10000m1029hPa79%
16-Apr-2024 00:00Scattered Clouds1°C4 mph, SE25%10000m1028hPa80%
16-Apr-2024 03:00Few Clouds1°C2 mph, E19%10000m1028hPa88%
16-Apr-2024 06:00Scattered Clouds-5°C2 mph, SE27%10000m1030hPa95%
16-Apr-2024 09:00Broken Clouds-8°C2 mph, S66%10000m1031hPa93%
16-Apr-2024 12:00Broken Clouds-9°C4 mph, S67%8831m1032hPa93%
16-Apr-2024 15:00Broken Clouds-9°C2 mph, SE62%10000m1032hPa90%
16-Apr-2024 18:00Scattered Clouds-2°C2 mph, SE41%10000m1030hPa73%
16-Apr-2024 21:00Clear Sky1°C4 mph, SE8%10000m1030hPa74%
17-Apr-2024 00:00Clear Sky3°C4 mph, E6%10000m1029hPa77%
17-Apr-2024 03:00Few Clouds2°C2 mph, E17%10000m1029hPa92%
17-Apr-2024 06:00Few Clouds-4°C2 mph, S19%7898m1032hPa97%
17-Apr-2024 09:00Broken Clouds-5°C2 mph, S62%8852m1033hPa94%
17-Apr-2024 12:00Broken Clouds-5°C4 mph, SE62%9035m1033hPa95%
17-Apr-2024 15:00Broken Clouds-5°C4 mph, SE63%10000m1032hPa93%
17-Apr-2024 18:00Broken Clouds0°C4 mph, SE64%10000m1030hPa74%
17-Apr-2024 21:00Overcast Clouds3°C7 mph, SE91%10000m1029hPa71%
18-Apr-2024 00:00Broken Clouds5°C7 mph, SE78%10000m1027hPa67%
18-Apr-2024 03:00Scattered Clouds3°C4 mph, E33%10000m1026hPa85%
18-Apr-2024 06:00Scattered Clouds-2°C2 mph, S32%10000m1029hPa92%
18-Apr-2024 09:00Broken Clouds-3°C2 mph, SE75%10000m1029hPa91%
18-Apr-2024 12:00Broken Clouds-4°C2 mph, SE59%10000m1030hPa90%
18-Apr-2024 15:00Scattered Clouds-4°C2 mph, SE33%10000m1030hPa85%
18-Apr-2024 18:00Scattered Clouds2°C4 mph, SE28%10000m1028hPa65%
18-Apr-2024 21:00Clear Sky5°C4 mph, SE6%10000m1027hPa57%
19-Apr-2024 00:00Clear Sky6°C4 mph, SE4%10000m1026hPa56%
19-Apr-2024 03:00Clear Sky4°C2 mph, E0%10000m1025hPa81%
19-Apr-2024 06:00Clear Sky-1°C2 mph, S0%10000m1027hPa91%
19-Apr-2024 09:00Clear Sky-2°C2 mph, S0%10000m1027hPa90%
19-Apr-2024 12:00Clear Sky-2°C2 mph, SE3%10000m1027hPa91%
19-Apr-2024 15:00Clear Sky-2°C2 mph, SE5%10000m1026hPa87%
19-Apr-2024 18:00Clear Sky3°C2 mph, SE4%10000m1024hPa67%
19-Apr-2024 21:00Clear Sky6°C4 mph, SE0%10000m1021hPa56%
20-Apr-2024 00:00Clear Sky7°C2 mph, SE0%10000m1019hPa55%
20-Apr-2024 03:00Clear Sky5°C0 mph, E2%10000m1018hPa77%
20-Apr-2024 06:00Clear Sky1°C2 mph, SW9%10000m1019hPa84%
20-Apr-2024 09:00Few Clouds-0°C2 mph, SW15%10000m1018hPa86%
20-Apr-2024 12:00Few Clouds-1°C2 mph, SW16%10000m1017hPa88%
20-Apr-2024 15:00Clear Sky0°C2 mph, S9%10000m1016hPa85%